sensor_id;sensor_type;location;lat;lon;timestamp;P1;durP1;ratioP1;P2;durP2;ratioP2
46505;SDS011;32220;49.808;9.968;2023-04-03T00:01:04;3.83;;;2.40;;
46505;SDS011;32220;49.808;9.968;2023-04-03T00:03:32;3.77;;;2.10;;
46505;SDS011;32220;49.808;9.968;2023-04-03T00:06:00;3.47;;;1.90;;
46505;SDS011;32220;49.808;9.968;2023-04-03T00:08:29;2.40;;;2.20;;
46505;SDS011;32220;49.808;9.968;2023-04-03T00:10:58;2.40;;;2.10;;
46505;SDS011;32220;49.808;9.968;2023-04-03T00:13:26;2.07;;;1.90;;
46505;SDS011;32220;49.808;9.968;2023-04-03T00:15:53;2.57;;;2.17;;
46505;SDS011;32220;49.808;9.968;2023-04-03T00:18:21;2.47;;;1.80;;
46505;SDS011;32220;49.808;9.968;2023-04-03T00:20:49;3.07;;;2.07;;
46505;SDS011;32220;49.808;9.968;2023-04-03T00:23:17;3.00;;;2.00;;
46505;SDS011;32220;49.808;9.968;2023-04-03T00:25:46;2.50;;;1.93;;
46505;SDS011;32220;49.808;9.968;2023-04-03T00:28:14;4.53;;;2.23;;
46505;SDS011;32220;49.808;9.968;2023-04-03T00:30:41;3.70;;;2.23;;
46505;SDS011;32220;49.808;9.968;2023-04-03T00:33:09;2.27;;;2.07;;
46505;SDS011;32220;49.808;9.968;2023-04-03T00:35:40;3.97;;;2.57;;
46505;SDS011;32220;49.808;9.968;2023-04-03T00:38:08;2.63;;;2.10;;
46505;SDS011;32220;49.808;9.968;2023-04-03T00:40:36;3.97;;;2.50;;
46505;SDS011;32220;49.808;9.968;2023-04-03T00:43:10;4.90;;;2.47;;
46505;SDS011;32220;49.808;9.968;2023-04-03T00:45:40;3.27;;;2.33;;
46505;SDS011;32220;49.808;9.968;2023-04-03T00:48:11;3.27;;;2.27;;
46505;SDS011;32220;49.808;9.968;2023-04-03T00:50:42;2.20;;;2.00;;
46505;SDS011;32220;49.808;9.968;2023-04-03T00:53:13;2.40;;;2.17;;
46505;SDS011;32220;49.808;9.968;2023-04-03T00:55:43;2.50;;;2.20;;
46505;SDS011;32220;49.808;9.968;2023-04-03T00:58:13;2.90;;;2.10;;
46505;SDS011;32220;49.808;9.968;2023-04-03T01:00:46;2.63;;;2.20;;
46505;SDS011;32220;49.808;9.968;2023-04-03T01:03:22;3.53;;;2.00;;
46505;SDS011;32220;49.808;9.968;2023-04-03T01:05:50;2.10;;;1.90;;
46505;SDS011;32220;49.808;9.968;2023-04-03T01:08:18;3.70;;;2.40;;
46505;SDS011;32220;49.808;9.968;2023-04-03T01:10:45;1.90;;;1.80;;
46505;SDS011;32220;49.808;9.968;2023-04-03T01:13:19;2.37;;;2.17;;
46505;SDS011;32220;49.808;9.968;2023-04-03T01:15:50;2.30;;;1.93;;
46505;SDS011;32220;49.808;9.968;2023-04-03T01:18:18;4.33;;;2.80;;
46505;SDS011;32220;49.808;9.968;2023-04-03T01:26:50;3.80;;;2.40;;
46505;SDS011;32220;49.808;9.968;2023-04-03T01:29:19;2.80;;;2.50;;
46505;SDS011;32220;49.808;9.968;2023-04-03T01:31:52;4.70;;;2.83;;
46505;SDS011;32220;49.808;9.968;2023-04-03T01:34:21;4.40;;;2.30;;
46505;SDS011;32220;49.808;9.968;2023-04-03T01:36:50;4.27;;;2.13;;
46505;SDS011;32220;49.808;9.968;2023-04-03T01:39:19;2.50;;;2.30;;
46505;SDS011;32220;49.808;9.968;2023-04-03T01:41:47;3.37;;;2.70;;
46505;SDS011;32220;49.808;9.968;2023-04-03T01:44:28;3.13;;;2.43;;
46505;SDS011;32220;49.808;9.968;2023-04-03T01:46:57;2.73;;;2.40;;
46505;SDS011;32220;49.808;9.968;2023-04-03T01:49:27;2.97;;;2.20;;
46505;SDS011;32220;49.808;9.968;2023-04-03T01:51:55;3.87;;;2.20;;
46505;SDS011;32220;49.808;9.968;2023-04-03T01:54:23;2.90;;;2.40;;
46505;SDS011;32220;49.808;9.968;2023-04-03T01:56:51;2.60;;;2.10;;
46505;SDS011;32220;49.808;9.968;2023-04-03T01:59:20;2.67;;;2.20;;
46505;SDS011;32220;49.808;9.968;2023-04-03T02:01:48;3.53;;;2.03;;
46505;SDS011;32220;49.808;9.968;2023-04-03T02:04:17;3.23;;;2.17;;
46505;SDS011;32220;49.808;9.968;2023-04-03T02:06:45;2.63;;;2.00;;
46505;SDS011;32220;49.808;9.968;2023-04-03T02:09:12;2.10;;;1.90;;
46505;SDS011;32220;49.808;9.968;2023-04-03T02:11:40;2.60;;;2.00;;
46505;SDS011;32220;49.808;9.968;2023-04-03T02:14:09;5.57;;;2.33;;
46505;SDS011;32220;49.808;9.968;2023-04-03T02:16:37;2.20;;;1.83;;
46505;SDS011;32220;49.808;9.968;2023-04-03T02:19:05;2.77;;;1.80;;
46505;SDS011;32220;49.808;9.968;2023-04-03T02:21:35;3.10;;;2.20;;
46505;SDS011;32220;49.808;9.968;2023-04-03T02:24:03;3.90;;;3.10;;
46505;SDS011;32220;49.808;9.968;2023-04-03T02:26:31;3.67;;;2.40;;
46505;SDS011;32220;49.808;9.968;2023-04-03T02:28:59;3.17;;;2.73;;
46505;SDS011;32220;49.808;9.968;2023-04-03T02:31:27;3.00;;;2.10;;
46505;SDS011;32220;49.808;9.968;2023-04-03T02:33:56;2.57;;;2.37;;
46505;SDS011;32220;49.808;9.968;2023-04-03T02:36:23;3.93;;;2.60;;
46505;SDS011;32220;49.808;9.968;2023-04-03T02:38:57;3.57;;;2.80;;
46505;SDS011;32220;49.808;9.968;2023-04-03T02:41:24;3.23;;;2.50;;
46505;SDS011;32220;49.808;9.968;2023-04-03T02:43:59;3.70;;;2.50;;
46505;SDS011;32220;49.808;9.968;2023-04-03T02:46:28;2.40;;;2.20;;
46505;SDS011;32220;49.808;9.968;2023-04-03T02:48:56;4.40;;;2.93;;
46505;SDS011;32220;49.808;9.968;2023-04-03T02:51:24;4.97;;;3.20;;
46505;SDS011;32220;49.808;9.968;2023-04-03T02:53:53;3.20;;;2.97;;
46505;SDS011;32220;49.808;9.968;2023-04-03T02:56:26;3.43;;;3.17;;
46505;SDS011;32220;49.808;9.968;2023-04-03T02:58:54;3.90;;;3.17;;
46505;SDS011;32220;49.808;9.968;2023-04-03T03:01:22;5.63;;;3.20;;
46505;SDS011;32220;49.808;9.968;2023-04-03T03:03:50;5.47;;;3.60;;
46505;SDS011;32220;49.808;9.968;2023-04-03T03:06:18;3.83;;;3.13;;
46505;SDS011;32220;49.808;9.968;2023-04-03T03:08:46;3.60;;;3.30;;
46505;SDS011;32220;49.808;9.968;2023-04-03T03:11:14;7.57;;;3.50;;
46505;SDS011;32220;49.808;9.968;2023-04-03T03:13:43;3.33;;;3.03;;
46505;SDS011;32220;49.808;9.968;2023-04-03T03:16:11;3.20;;;2.90;;
46505;SDS011;32220;49.808;9.968;2023-04-03T03:18:39;4.13;;;3.37;;
46505;SDS011;32220;49.808;9.968;2023-04-03T03:21:08;4.70;;;3.20;;
46505;SDS011;32220;49.808;9.968;2023-04-03T03:23:37;3.60;;;3.30;;
46505;SDS011;32220;49.808;9.968;2023-04-03T03:26:07;4.10;;;3.60;;
46505;SDS011;32220;49.808;9.968;2023-04-03T03:28:36;6.17;;;3.37;;
46505;SDS011;32220;49.808;9.968;2023-04-03T03:31:08;4.17;;;3.10;;
46505;SDS011;32220;49.808;9.968;2023-04-03T03:33:38;5.03;;;3.50;;
46505;SDS011;32220;49.808;9.968;2023-04-03T03:36:06;3.67;;;3.23;;
46505;SDS011;32220;49.808;9.968;2023-04-03T03:38:35;6.00;;;3.40;;
46505;SDS011;32220;49.808;9.968;2023-04-03T03:41:04;6.17;;;3.37;;
46505;SDS011;32220;49.808;9.968;2023-04-03T03:43:33;7.07;;;3.43;;
46505;SDS011;32220;49.808;9.968;2023-04-03T03:46:03;5.60;;;3.47;;
46505;SDS011;32220;49.808;9.968;2023-04-03T03:48:32;5.27;;;2.87;;
46505;SDS011;32220;49.808;9.968;2023-04-03T03:51:01;5.20;;;3.07;;
46505;SDS011;32220;49.808;9.968;2023-04-03T03:53:33;4.23;;;2.63;;
46505;SDS011;32220;49.808;9.968;2023-04-03T03:56:05;4.83;;;3.07;;
46505;SDS011;32220;49.808;9.968;2023-04-03T03:58:36;3.43;;;2.73;;
46505;SDS011;32220;49.808;9.968;2023-04-03T04:01:04;5.53;;;3.03;;
46505;SDS011;32220;49.808;9.968;2023-04-03T04:03:39;3.87;;;2.70;;
46505;SDS011;32220;49.808;9.968;2023-04-03T04:06:09;3.10;;;2.87;;
46505;SDS011;32220;49.808;9.968;2023-04-03T04:08:37;3.97;;;2.53;;
46505;SDS011;32220;49.808;9.968;2023-04-03T04:11:07;6.30;;;3.23;;
46505;SDS011;32220;49.808;9.968;2023-04-03T04:13:36;4.83;;;2.70;;
46505;SDS011;32220;49.808;9.968;2023-04-03T04:16:05;5.30;;;2.80;;
46505;SDS011;32220;49.808;9.968;2023-04-03T04:18:33;3.90;;;3.23;;
46505;SDS011;32220;49.808;9.968;2023-04-03T04:21:03;4.80;;;2.77;;
46505;SDS011;32220;49.808;9.968;2023-04-03T04:23:31;5.33;;;2.87;;
46505;SDS011;32220;49.808;9.968;2023-04-03T04:26:00;4.77;;;2.90;;
46505;SDS011;32220;49.808;9.968;2023-04-03T04:28:31;4.60;;;2.80;;
46505;SDS011;32220;49.808;9.968;2023-04-03T04:31:00;4.40;;;2.50;;
46505;SDS011;32220;49.808;9.968;2023-04-03T04:33:29;5.13;;;3.10;;
46505;SDS011;32220;49.808;9.968;2023-04-03T04:35:59;5.13;;;2.83;;
46505;SDS011;32220;49.808;9.968;2023-04-03T04:38:28;4.53;;;3.00;;
46505;SDS011;32220;49.808;9.968;2023-04-03T04:40:56;5.40;;;3.47;;
46505;SDS011;32220;49.808;9.968;2023-04-03T04:43:24;4.30;;;3.50;;
46505;SDS011;32220;49.808;9.968;2023-04-03T04:46:01;4.87;;;3.10;;
46505;SDS011;32220;49.808;9.968;2023-04-03T04:48:32;5.97;;;3.03;;
46505;SDS011;32220;49.808;9.968;2023-04-03T04:51:01;3.63;;;3.00;;
46505;SDS011;32220;49.808;9.968;2023-04-03T04:53:31;5.93;;;3.23;;
46505;SDS011;32220;49.808;9.968;2023-04-03T04:55:59;3.53;;;3.23;;
46505;SDS011;32220;49.808;9.968;2023-04-03T04:58:27;5.03;;;3.00;;
46505;SDS011;32220;49.808;9.968;2023-04-03T05:00:58;4.40;;;2.93;;
46505;SDS011;32220;49.808;9.968;2023-04-03T05:03:27;3.63;;;2.97;;
46505;SDS011;32220;49.808;9.968;2023-04-03T05:05:55;4.30;;;3.17;;
46505;SDS011;32220;49.808;9.968;2023-04-03T05:08:23;8.13;;;3.03;;
46505;SDS011;32220;49.808;9.968;2023-04-03T05:10:53;4.63;;;3.10;;
46505;SDS011;32220;49.808;9.968;2023-04-03T05:13:21;5.30;;;3.20;;
46505;SDS011;32220;49.808;9.968;2023-04-03T05:15:49;7.77;;;3.43;;
46505;SDS011;32220;49.808;9.968;2023-04-03T05:18:16;3.90;;;3.30;;
46505;SDS011;32220;49.808;9.968;2023-04-03T05:20:45;4.80;;;2.77;;
46505;SDS011;32220;49.808;9.968;2023-04-03T05:23:17;7.27;;;3.70;;
46505;SDS011;32220;49.808;9.968;2023-04-03T05:25:46;6.13;;;3.23;;
46505;SDS011;32220;49.808;9.968;2023-04-03T05:28:17;5.60;;;3.63;;
46505;SDS011;32220;49.808;9.968;2023-04-03T05:30:44;4.10;;;3.70;;
46505;SDS011;32220;49.808;9.968;2023-04-03T05:33:13;5.13;;;3.53;;
46505;SDS011;32220;49.808;9.968;2023-04-03T05:35:46;4.27;;;3.03;;
46505;SDS011;32220;49.808;9.968;2023-04-03T05:38:18;4.43;;;3.07;;
46505;SDS011;32220;49.808;9.968;2023-04-03T05:40:46;4.40;;;3.33;;
46505;SDS011;32220;49.808;9.968;2023-04-03T05:43:14;3.00;;;2.70;;
46505;SDS011;32220;49.808;9.968;2023-04-03T05:45:46;5.40;;;3.17;;
46505;SDS011;32220;49.808;9.968;2023-04-03T05:48:15;3.07;;;2.73;;
46505;SDS011;32220;49.808;9.968;2023-04-03T05:50:43;3.53;;;3.13;;
46505;SDS011;32220;49.808;9.968;2023-04-03T05:53:17;6.00;;;2.90;;
46505;SDS011;32220;49.808;9.968;2023-04-03T05:55:49;4.27;;;3.00;;
46505;SDS011;32220;49.808;9.968;2023-04-03T05:58:17;5.30;;;3.40;;
46505;SDS011;32220;49.808;9.968;2023-04-03T06:00:48;5.67;;;3.30;;
46505;SDS011;32220;49.808;9.968;2023-04-03T06:03:16;6.30;;;3.47;;
46505;SDS011;32220;49.808;9.968;2023-04-03T06:05:44;3.93;;;3.23;;
46505;SDS011;32220;49.808;9.968;2023-04-03T06:08:12;5.47;;;3.20;;
46505;SDS011;32220;49.808;9.968;2023-04-03T06:10:40;4.50;;;2.90;;
46505;SDS011;32220;49.808;9.968;2023-04-03T06:13:08;6.43;;;3.07;;
46505;SDS011;32220;49.808;9.968;2023-04-03T06:15:36;4.73;;;3.20;;
46505;SDS011;32220;49.808;9.968;2023-04-03T06:18:05;3.13;;;2.83;;
46505;SDS011;32220;49.808;9.968;2023-04-03T06:20:34;4.90;;;3.20;;
46505;SDS011;32220;49.808;9.968;2023-04-03T06:23:02;5.57;;;3.37;;
46505;SDS011;32220;49.808;9.968;2023-04-03T06:25:30;4.60;;;3.20;;
46505;SDS011;32220;49.808;9.968;2023-04-03T06:27:59;9.20;;;3.50;;
46505;SDS011;32220;49.808;9.968;2023-04-03T06:30:27;3.73;;;3.30;;
46505;SDS011;32220;49.808;9.968;2023-04-03T06:32:55;4.63;;;2.80;;
46505;SDS011;32220;49.808;9.968;2023-04-03T06:35:24;5.73;;;3.23;;
46505;SDS011;32220;49.808;9.968;2023-04-03T06:37:53;3.60;;;2.87;;
46505;SDS011;32220;49.808;9.968;2023-04-03T06:40:22;4.93;;;3.03;;
46505;SDS011;32220;49.808;9.968;2023-04-03T06:42:52;4.30;;;3.37;;
46505;SDS011;32220;49.808;9.968;2023-04-03T06:45:20;3.23;;;2.73;;
46505;SDS011;32220;49.808;9.968;2023-04-03T06:47:48;2.93;;;2.60;;
46505;SDS011;32220;49.808;9.968;2023-04-03T06:50:15;5.23;;;3.23;;
46505;SDS011;32220;49.808;9.968;2023-04-03T06:52:45;5.63;;;2.97;;
46505;SDS011;32220;49.808;9.968;2023-04-03T06:55:13;5.67;;;3.13;;
46505;SDS011;32220;49.808;9.968;2023-04-03T06:57:41;3.77;;;3.00;;
46505;SDS011;32220;49.808;9.968;2023-04-03T07:00:08;6.73;;;2.80;;
46505;SDS011;32220;49.808;9.968;2023-04-03T07:02:37;4.80;;;3.27;;
46505;SDS011;32220;49.808;9.968;2023-04-03T07:05:06;5.27;;;2.57;;
46505;SDS011;32220;49.808;9.968;2023-04-03T07:07:34;4.27;;;2.67;;
46505;SDS011;32220;49.808;9.968;2023-04-03T07:10:06;4.17;;;3.10;;
46505;SDS011;32220;49.808;9.968;2023-04-03T07:12:35;3.43;;;2.57;;
46505;SDS011;32220;49.808;9.968;2023-04-03T07:15:03;4.13;;;2.60;;
46505;SDS011;32220;49.808;9.968;2023-04-03T07:17:32;5.17;;;2.87;;
46505;SDS011;32220;49.808;9.968;2023-04-03T07:20:02;4.83;;;2.70;;
46505;SDS011;32220;49.808;9.968;2023-04-03T07:22:31;2.63;;;2.27;;
46505;SDS011;32220;49.808;9.968;2023-04-03T07:24:58;2.60;;;2.40;;
46505;SDS011;32220;49.808;9.968;2023-04-03T07:27:28;4.40;;;2.40;;
46505;SDS011;32220;49.808;9.968;2023-04-03T07:29:56;4.43;;;2.70;;
46505;SDS011;32220;49.808;9.968;2023-04-03T07:32:24;4.17;;;2.27;;
46505;SDS011;32220;49.808;9.968;2023-04-03T07:34:53;6.60;;;2.60;;
46505;SDS011;32220;49.808;9.968;2023-04-03T07:37:21;4.10;;;2.20;;
46505;SDS011;32220;49.808;9.968;2023-04-03T07:39:49;3.60;;;2.27;;
46505;SDS011;32220;49.808;9.968;2023-04-03T07:42:17;4.10;;;2.20;;
46505;SDS011;32220;49.808;9.968;2023-04-03T07:44:46;3.20;;;1.97;;
46505;SDS011;32220;49.808;9.968;2023-04-03T07:47:14;5.03;;;2.57;;
46505;SDS011;32220;49.808;9.968;2023-04-03T07:49:43;2.93;;;2.27;;
46505;SDS011;32220;49.808;9.968;2023-04-03T07:52:10;4.47;;;2.37;;
46505;SDS011;32220;49.808;9.968;2023-04-03T07:54:39;2.80;;;2.10;;
46505;SDS011;32220;49.808;9.968;2023-04-03T07:57:07;5.27;;;2.40;;
46505;SDS011;32220;49.808;9.968;2023-04-03T07:59:34;3.97;;;2.00;;
46505;SDS011;32220;49.808;9.968;2023-04-03T08:02:04;2.10;;;1.90;;
46505;SDS011;32220;49.808;9.968;2023-04-03T08:04:32;2.40;;;1.90;;
46505;SDS011;32220;49.808;9.968;2023-04-03T08:07:00;3.07;;;2.00;;
46505;SDS011;32220;49.808;9.968;2023-04-03T08:09:28;4.70;;;2.30;;
46505;SDS011;32220;49.808;9.968;2023-04-03T08:11:57;3.37;;;2.10;;
46505;SDS011;32220;49.808;9.968;2023-04-03T08:14:25;4.03;;;2.23;;
46505;SDS011;32220;49.808;9.968;2023-04-03T08:16:52;4.40;;;1.97;;
46505;SDS011;32220;49.808;9.968;2023-04-03T08:19:22;3.67;;;2.20;;
46505;SDS011;32220;49.808;9.968;2023-04-03T08:21:50;2.03;;;1.67;;
46505;SDS011;32220;49.808;9.968;2023-04-03T08:24:19;2.20;;;1.53;;
46505;SDS011;32220;49.808;9.968;2023-04-03T08:26:46;3.70;;;1.77;;
46505;SDS011;32220;49.808;9.968;2023-04-03T08:29:14;2.57;;;1.60;;
46505;SDS011;32220;49.808;9.968;2023-04-03T08:31:42;3.50;;;2.10;;
46505;SDS011;32220;49.808;9.968;2023-04-03T08:34:10;6.07;;;2.20;;
46505;SDS011;32220;49.808;9.968;2023-04-03T08:36:40;2.13;;;1.93;;
46505;SDS011;32220;49.808;9.968;2023-04-03T08:39:08;3.00;;;1.77;;
46505;SDS011;32220;49.808;9.968;2023-04-03T08:41:37;4.23;;;2.00;;
46505;SDS011;32220;49.808;9.968;2023-04-03T08:44:13;2.70;;;1.90;;
46505;SDS011;32220;49.808;9.968;2023-04-03T08:46:47;3.50;;;2.13;;
46505;SDS011;32220;49.808;9.968;2023-04-03T08:49:26;2.03;;;1.83;;
46505;SDS011;32220;49.808;9.968;2023-04-03T08:52:02;4.20;;;2.47;;
46505;SDS011;32220;49.808;9.968;2023-04-03T08:54:36;2.47;;;2.00;;
46505;SDS011;32220;49.808;9.968;2023-04-03T08:57:09;5.53;;;2.50;;
46505;SDS011;32220;49.808;9.968;2023-04-03T08:59:41;2.70;;;2.20;;
46505;SDS011;32220;49.808;9.968;2023-04-03T09:02:16;3.90;;;2.30;;
46505;SDS011;32220;49.808;9.968;2023-04-03T09:04:55;3.13;;;2.13;;
46505;SDS011;32220;49.808;9.968;2023-04-03T09:07:29;3.57;;;2.43;;
46505;SDS011;32220;49.808;9.968;2023-04-03T09:10:04;2.78;;;2.00;;
46505;SDS011;32220;49.808;9.968;2023-04-03T09:12:34;4.13;;;2.22;;
46505;SDS011;32220;49.808;9.968;2023-04-03T09:15:08;3.75;;;2.08;;
46505;SDS011;32220;49.808;9.968;2023-04-03T09:17:45;2.78;;;1.73;;
46505;SDS011;32220;49.808;9.968;2023-04-03T09:20:21;3.33;;;2.00;;
46505;SDS011;32220;49.808;9.968;2023-04-03T09:22:57;2.40;;;1.67;;
46505;SDS011;32220;49.808;9.968;2023-04-03T09:25:26;2.60;;;1.60;;
46505;SDS011;32220;49.808;9.968;2023-04-03T09:27:56;3.22;;;1.92;;
46505;SDS011;32220;49.808;9.968;2023-04-03T09:30:24;3.50;;;2.03;;
46505;SDS011;32220;49.808;9.968;2023-04-03T09:32:54;3.40;;;1.70;;
46505;SDS011;32220;49.808;9.968;2023-04-03T09:35:27;3.03;;;2.00;;
46505;SDS011;32220;49.808;9.968;2023-04-03T09:37:59;2.30;;;2.10;;
46505;SDS011;32220;49.808;9.968;2023-04-03T09:40:37;2.97;;;1.80;;
46505;SDS011;32220;49.808;9.968;2023-04-03T09:46:17;2.23;;;2.03;;
46505;SDS011;32220;49.808;9.968;2023-04-03T09:48:51;2.13;;;1.90;;
46505;SDS011;32220;49.808;9.968;2023-04-03T09:51:24;2.77;;;1.93;;
46505;SDS011;32220;49.808;9.968;2023-04-03T09:53:55;2.50;;;1.77;;
46505;SDS011;32220;49.808;9.968;2023-04-03T09:56:24;2.67;;;1.80;;
46505;SDS011;32220;49.808;9.968;2023-04-03T09:59:06;3.17;;;1.60;;
46505;SDS011;32220;49.808;9.968;2023-04-03T10:01:36;3.07;;;1.90;;
46505;SDS011;32220;49.808;9.968;2023-04-03T10:04:07;4.03;;;1.67;;
46505;SDS011;32220;49.808;9.968;2023-04-03T10:06:38;1.73;;;1.50;;
46505;SDS011;32220;49.808;9.968;2023-04-03T10:09:18;2.50;;;1.60;;
46505;SDS011;32220;49.808;9.968;2023-04-03T10:14:36;2.57;;;1.83;;
46505;SDS011;32220;49.808;9.968;2023-04-03T10:17:11;2.63;;;1.70;;
46505;SDS011;32220;49.808;9.968;2023-04-03T10:19:46;2.40;;;1.80;;
46505;SDS011;32220;49.808;9.968;2023-04-03T10:22:19;2.93;;;1.60;;
46505;SDS011;32220;49.808;9.968;2023-04-03T10:24:59;1.93;;;1.73;;
46505;SDS011;32220;49.808;9.968;2023-04-03T10:27:40;3.10;;;1.60;;
46505;SDS011;32220;49.808;9.968;2023-04-03T10:30:19;2.87;;;1.70;;
46505;SDS011;32220;49.808;9.968;2023-04-03T10:32:58;1.77;;;1.67;;
46505;SDS011;32220;49.808;9.968;2023-04-03T10:35:39;1.90;;;1.60;;
46505;SDS011;32220;49.808;9.968;2023-04-03T10:38:18;2.47;;;2.20;;
46505;SDS011;32220;49.808;9.968;2023-04-03T10:40:54;2.05;;;1.60;;
46505;SDS011;32220;49.808;9.968;2023-04-03T10:43:30;1.50;;;1.40;;
46505;SDS011;32220;49.808;9.968;2023-04-03T10:46:04;2.58;;;1.75;;
46505;SDS011;32220;49.808;9.968;2023-04-03T10:48:45;3.20;;;2.00;;
46505;SDS011;32220;49.808;9.968;2023-04-03T10:51:23;4.33;;;1.90;;
46505;SDS011;32220;49.808;9.968;2023-04-03T10:53:57;3.20;;;1.80;;
46505;SDS011;32220;49.808;9.968;2023-04-03T10:56:36;2.27;;;1.40;;
46505;SDS011;32220;49.808;9.968;2023-04-03T10:59:15;2.17;;;1.57;;
46505;SDS011;32220;49.808;9.968;2023-04-03T11:01:47;1.90;;;1.63;;
46505;SDS011;32220;49.808;9.968;2023-04-03T11:04:19;3.80;;;2.17;;
46505;SDS011;32220;49.808;9.968;2023-04-03T11:06:52;2.63;;;1.70;;
46505;SDS011;32220;49.808;9.968;2023-04-03T11:09:26;2.57;;;1.90;;
46505;SDS011;32220;49.808;9.968;2023-04-03T11:11:58;2.33;;;1.50;;
46505;SDS011;32220;49.808;9.968;2023-04-03T11:14:31;2.53;;;2.10;;
46505;SDS011;32220;49.808;9.968;2023-04-03T11:17:11;3.40;;;1.50;;
46505;SDS011;32220;49.808;9.968;2023-04-03T11:19:49;1.97;;;1.60;;
46505;SDS011;32220;49.808;9.968;2023-04-03T11:22:25;3.20;;;1.50;;
46505;SDS011;32220;49.808;9.968;2023-04-03T11:24:58;4.17;;;2.00;;
46505;SDS011;32220;49.808;9.968;2023-04-03T11:27:37;3.37;;;1.70;;
46505;SDS011;32220;49.808;9.968;2023-04-03T11:30:12;4.77;;;1.53;;
46505;SDS011;32220;49.808;9.968;2023-04-03T11:32:51;1.73;;;1.60;;
46505;SDS011;32220;49.808;9.968;2023-04-03T11:35:32;1.40;;;1.20;;
46505;SDS011;32220;49.808;9.968;2023-04-03T11:38:01;2.07;;;1.60;;
46505;SDS011;32220;49.808;9.968;2023-04-03T11:40:33;2.07;;;1.43;;
46505;SDS011;32220;49.808;9.968;2023-04-03T11:43:07;2.13;;;1.63;;
46505;SDS011;32220;49.808;9.968;2023-04-03T11:45:55;2.30;;;1.50;;
46505;SDS011;32220;49.808;9.968;2023-04-03T11:48:48;1.53;;;1.10;;
46505;SDS011;32220;49.808;9.968;2023-04-03T11:51:39;2.37;;;1.40;;
46505;SDS011;32220;49.808;9.968;2023-04-03T12:09:34;1.60;;;1.23;;
46505;SDS011;32220;49.808;9.968;2023-04-03T12:12:26;2.03;;;1.40;;
46505;SDS011;32220;49.808;9.968;2023-04-03T12:15:11;2.47;;;1.58;;
46505;SDS011;32220;49.808;9.968;2023-04-03T12:17:47;2.38;;;1.42;;
46505;SDS011;32220;49.808;9.968;2023-04-03T12:23:23;2.63;;;1.50;;
46505;SDS011;32220;49.808;9.968;2023-04-03T12:25:53;2.27;;;1.50;;
46505;SDS011;32220;49.808;9.968;2023-04-03T12:28:35;1.77;;;1.60;;
46505;SDS011;32220;49.808;9.968;2023-04-03T12:31:06;1.50;;;1.40;;
46505;SDS011;32220;49.808;9.968;2023-04-03T12:33:42;2.67;;;1.60;;
46505;SDS011;32220;49.808;9.968;2023-04-03T12:36:26;2.50;;;1.60;;
46505;SDS011;32220;49.808;9.968;2023-04-03T12:39:04;1.60;;;1.30;;
46505;SDS011;32220;49.808;9.968;2023-04-03T12:41:43;2.70;;;1.50;;
46505;SDS011;32220;49.808;9.968;2023-04-03T12:44:21;2.00;;;1.43;;
46505;SDS011;32220;49.808;9.968;2023-04-03T12:47:04;2.53;;;1.50;;
46505;SDS011;32220;49.808;9.968;2023-04-03T12:49:47;2.20;;;1.30;;
46505;SDS011;32220;49.808;9.968;2023-04-03T12:52:18;1.27;;;1.20;;
46505;SDS011;32220;49.808;9.968;2023-04-03T12:54:52;1.83;;;1.20;;
46505;SDS011;32220;49.808;9.968;2023-04-03T12:57:21;2.13;;;1.50;;
46505;SDS011;32220;49.808;9.968;2023-04-03T12:59:52;1.93;;;1.30;;
46505;SDS011;32220;49.808;9.968;2023-04-03T13:02:21;1.53;;;1.27;;
46505;SDS011;32220;49.808;9.968;2023-04-03T13:04:54;1.40;;;1.20;;
46505;SDS011;32220;49.808;9.968;2023-04-03T13:07:26;1.37;;;1.27;;
46505;SDS011;32220;49.808;9.968;2023-04-03T13:09:58;2.27;;;1.47;;
46505;SDS011;32220;49.808;9.968;2023-04-03T13:12:29;1.97;;;1.30;;
46505;SDS011;32220;49.808;9.968;2023-04-03T13:14:58;1.67;;;1.33;;
46505;SDS011;32220;49.808;9.968;2023-04-03T13:17:30;1.30;;;1.20;;
46505;SDS011;32220;49.808;9.968;2023-04-03T13:20:10;1.50;;;1.23;;
46505;SDS011;32220;49.808;9.968;2023-04-03T13:22:47;1.57;;;1.30;;
46505;SDS011;32220;49.808;9.968;2023-04-03T13:25:57;1.87;;;1.47;;
46505;SDS011;32220;49.808;9.968;2023-04-03T13:28:11;1.83;;;1.10;;
46505;SDS011;32220;49.808;9.968;2023-04-03T13:30:54;2.80;;;1.50;;
46505;SDS011;32220;49.808;9.968;2023-04-03T13:33:29;3.17;;;1.57;;
46505;SDS011;32220;49.808;9.968;2023-04-03T13:36:02;1.77;;;1.50;;
46505;SDS011;32220;49.808;9.968;2023-04-03T13:38:32;1.13;;;1.00;;
46505;SDS011;32220;49.808;9.968;2023-04-03T13:41:03;2.27;;;1.40;;
46505;SDS011;32220;49.808;9.968;2023-04-03T13:43:36;1.33;;;1.20;;
46505;SDS011;32220;49.808;9.968;2023-04-03T13:46:20;3.07;;;1.40;;
46505;SDS011;32220;49.808;9.968;2023-04-03T13:48:51;1.87;;;1.10;;
46505;SDS011;32220;49.808;9.968;2023-04-03T13:51:23;3.63;;;1.23;;
46505;SDS011;32220;49.808;9.968;2023-04-03T13:53:53;2.97;;;1.43;;
46505;SDS011;32220;49.808;9.968;2023-04-03T13:56:25;1.30;;;1.20;;
46505;SDS011;32220;49.808;9.968;2023-04-03T13:59:04;1.87;;;1.27;;
46505;SDS011;32220;49.808;9.968;2023-04-03T14:01:48;1.73;;;1.10;;
46505;SDS011;32220;49.808;9.968;2023-04-03T14:04:24;1.40;;;1.20;;
46505;SDS011;32220;49.808;9.968;2023-04-03T14:06:55;1.30;;;1.20;;
46505;SDS011;32220;49.808;9.968;2023-04-03T14:09:24;1.63;;;1.10;;
46505;SDS011;32220;49.808;9.968;2023-04-03T14:11:54;1.70;;;1.20;;
46505;SDS011;32220;49.808;9.968;2023-04-03T14:14:27;1.53;;;1.07;;
46505;SDS011;32220;49.808;9.968;2023-04-03T14:16:58;1.67;;;0.90;;
46505;SDS011;32220;49.808;9.968;2023-04-03T14:19:29;3.10;;;1.37;;
46505;SDS011;32220;49.808;9.968;2023-04-03T14:22:00;1.30;;;1.00;;
46505;SDS011;32220;49.808;9.968;2023-04-03T14:24:31;1.67;;;1.23;;
46505;SDS011;32220;49.808;9.968;2023-04-03T14:26:58;1.23;;;1.13;;
46505;SDS011;32220;49.808;9.968;2023-04-03T14:29:26;2.80;;;1.20;;
46505;SDS011;32220;49.808;9.968;2023-04-03T14:31:54;1.50;;;1.00;;
46505;SDS011;32220;49.808;9.968;2023-04-03T14:34:22;2.50;;;1.17;;
46505;SDS011;32220;49.808;9.968;2023-04-03T14:36:50;2.10;;;1.30;;
46505;SDS011;32220;49.808;9.968;2023-04-03T14:39:19;1.70;;;1.07;;
46505;SDS011;32220;49.808;9.968;2023-04-03T14:41:47;2.10;;;1.43;;
46505;SDS011;32220;49.808;9.968;2023-04-03T14:44:15;2.53;;;1.20;;
46505;SDS011;32220;49.808;9.968;2023-04-03T14:46:43;2.43;;;1.00;;
46505;SDS011;32220;49.808;9.968;2023-04-03T14:49:12;3.03;;;1.27;;
46505;SDS011;32220;49.808;9.968;2023-04-03T14:51:42;2.90;;;1.43;;
46505;SDS011;32220;49.808;9.968;2023-04-03T14:54:11;1.77;;;1.37;;
46505;SDS011;32220;49.808;9.968;2023-04-03T14:56:42;2.37;;;1.20;;
46505;SDS011;32220;49.808;9.968;2023-04-03T14:59:11;1.47;;;1.10;;
46505;SDS011;32220;49.808;9.968;2023-04-03T15:01:40;2.27;;;1.20;;
46505;SDS011;32220;49.808;9.968;2023-04-03T15:04:10;1.40;;;1.30;;
46505;SDS011;32220;49.808;9.968;2023-04-03T15:06:39;2.13;;;1.53;;
46505;SDS011;32220;49.808;9.968;2023-04-03T15:09:09;2.53;;;1.20;;
46505;SDS011;32220;49.808;9.968;2023-04-03T15:11:48;1.47;;;1.20;;
46505;SDS011;32220;49.808;9.968;2023-04-03T15:14:17;2.27;;;1.13;;
46505;SDS011;32220;49.808;9.968;2023-04-03T15:16:45;3.50;;;1.53;;
46505;SDS011;32220;49.808;9.968;2023-04-03T15:19:12;2.77;;;1.27;;
46505;SDS011;32220;49.808;9.968;2023-04-03T15:21:40;2.17;;;1.33;;
46505;SDS011;32220;49.808;9.968;2023-04-03T15:24:08;1.97;;;1.40;;
46505;SDS011;32220;49.808;9.968;2023-04-03T15:26:37;4.30;;;1.17;;
46505;SDS011;32220;49.808;9.968;2023-04-03T15:29:07;2.23;;;1.20;;
46505;SDS011;32220;49.808;9.968;2023-04-03T15:31:37;1.70;;;1.17;;
46505;SDS011;32220;49.808;9.968;2023-04-03T15:34:05;2.40;;;1.17;;
46505;SDS011;32220;49.808;9.968;2023-04-03T15:36:33;2.43;;;1.27;;
46505;SDS011;32220;49.808;9.968;2023-04-03T15:39:01;4.77;;;1.33;;
46505;SDS011;32220;49.808;9.968;2023-04-03T15:41:28;1.73;;;1.10;;